Time;durP1;ratioP1;P1;durP2;ratioP2;P2;SDS_P1;SDS_P2;PMS_P1;PMS_P2;Temp;Humidity;BMP_temperature;BMP_pressure;BME280_temperature;BME280_humidity;BME280_pressure;Samples;Min_cycle;Max_cycle;Signal;HPM_P1;HPM_P2
2022/04/06 00:01:13;;;;;;;10.13;5.20;;;;;;;6.90;80.49;99240.41;4472235;32;35553;-71
2022/04/06 00:03:59;;;;;;;9.48;5.00;;;;;;;7.35;77.68;99242.69;4472670;32;35029;-72
2022/04/06 00:06:45;;;;;;;8.75;4.82;;;;;;;7.39;75.05;99244.50;4482149;32;34857;-71
2022/04/06 00:09:39;;;;;;;10.17;5.40;;;;;;;6.96;76.42;99249.31;4484197;32;35249;-72
2022/04/06 00:12:25;;;;;;;7.60;4.62;;;;;;;6.71;79.08;99251.31;4484757;32;35542;-71
2022/04/06 00:15:12;;;;;;;9.70;4.87;;;;;;;6.85;78.39;99247.84;4480589;32;35931;-71
2022/04/06 00:17:58;;;;;;;8.95;5.20;;;;;;;7.03;77.51;99249.78;4484937;32;34778;-71
2022/04/06 00:20:44;;;;;;;9.90;4.50;;;;;;;7.13;77.39;99248.78;4482427;32;36505;-71
2022/04/06 00:23:30;;;;;;;8.70;4.78;;;;;;;7.27;76.97;99259.72;4484792;32;34585;-71
2022/04/06 00:26:17;;;;;;;9.88;5.37;;;;;;;7.48;76.03;99255.53;4484724;32;35995;-72
2022/04/06 00:29:03;;;;;;;8.10;4.82;;;;;;;7.41;75.09;99258.66;4484139;32;35612;-72
2022/04/06 00:31:50;;;;;;;8.40;4.75;;;;;;;7.45;75.19;99258.84;4472900;32;34223;-71
2022/04/06 00:37:42;;;;;;;9.95;5.05;;;;;;;7.04;76.54;99262.28;4474867;32;35019;-71
2022/04/06 00:40:28;;;;;;;8.20;5.00;;;;;;;7.36;75.02;99263.38;4472474;32;34549;-71
2022/04/06 00:43:15;;;;;;;10.13;4.60;;;;;;;7.11;74.73;99259.97;4484734;32;34164;-71
2022/04/06 00:46:01;;;;;;;9.38;4.78;;;;;;;7.16;75.04;99261.81;4472670;32;34702;-71
2022/04/06 00:48:47;;;;;;;8.35;4.45;;;;;;;7.20;74.75;99271.03;4481193;32;36002;-71
2022/04/06 00:51:33;;;;;;;9.85;4.65;;;;;;;7.13;75.56;99260.47;4480389;32;34701;-71
2022/04/06 00:54:22;;;;;;;8.35;4.28;;;;;;;6.88;76.79;99263.59;4474081;32;34061;-71
2022/04/06 00:57:08;;;;;;;7.87;4.35;;;;;;;6.66;78.42;99266.91;4474717;32;35619;-71
2022/04/06 00:59:58;;;;;;;7.78;4.30;;;;;;;6.75;78.53;99260.53;4474607;32;35944;-71
2022/04/06 01:02:44;;;;;;;8.65;4.57;;;;;;;7.01;78.16;99262.88;4474472;32;34845;-71
2022/04/06 01:05:31;;;;;;;8.55;4.70;;;;;;;6.62;78.80;99269.41;4471778;32;35314;-71
2022/04/06 01:08:17;;;;;;;9.48;4.97;;;;;;;6.48;79.37;99263.88;4463149;32;34593;-71
2022/04/06 01:11:03;;;;;;;9.68;5.05;;;;;;;6.40;80.09;99274.63;4469027;32;34953;-71
2022/04/06 01:13:51;;;;;;;13.25;7.37;;;;;;;6.40;81.09;99266.47;4474249;32;34655;-71
2022/04/06 01:16:38;;;;;;;9.75;5.53;;;;;;;6.56;81.75;99267.06;4486399;32;35212;-71
2022/04/06 01:19:39;;;;;;;11.38;5.43;;;;;;;6.71;77.44;99262.22;4467704;32;34543;-71
2022/04/06 01:22:26;;;;;;;8.68;3.87;;;;;;;6.52;76.51;99270.37;4463161;32;35935;-72
2022/04/06 01:25:13;;;;;;;9.65;4.20;;;;;;;6.24;78.63;99272.09;4471217;32;34594;-71
2022/04/06 01:27:59;;;;;;;9.65;4.93;;;;;;;6.22;79.43;99277.03;4473272;32;34208;-71
2022/04/06 01:30:45;;;;;;;9.43;4.80;;;;;;;6.43;79.72;99279.47;4482367;32;34643;-71
2022/04/06 01:33:32;;;;;;;8.73;4.85;;;;;;;5.93;81.59;99277.09;4485910;32;36007;-71
2022/04/06 01:36:18;;;;;;;10.35;5.50;;;;;;;5.97;85.18;99277.31;4474124;32;35601;-72
2022/04/06 01:39:04;;;;;;;11.15;4.93;;;;;;;5.76;88.35;99272.06;4481948;32;34191;-71
2022/04/06 01:41:51;;;;;;;9.20;4.90;;;;;;;6.41;85.59;99270.81;4462767;32;34965;-71
2022/04/06 01:44:38;;;;;;;8.35;4.55;;;;;;;6.53;83.98;99269.28;4482205;32;35151;-71
2022/04/06 01:47:24;;;;;;;8.52;4.50;;;;;;;6.56;82.68;99269.78;4473939;32;35463;-71
2022/04/06 01:53:15;;;;;;;10.90;5.40;;;;;;;5.87;85.43;99268.16;4481513;32;34685;-71
2022/04/06 01:56:02;;;;;;;9.32;4.87;;;;;;;5.77;88.42;99262.81;4482734;32;34997;-71
2022/04/06 01:58:48;;;;;;;9.98;4.97;;;;;;;5.84;89.41;99268.72;4481058;32;34916;-71
2022/04/06 02:01:37;;;;;;;8.75;4.82;;;;;;;5.76;86.47;99263.91;4462970;32;33991;-71
2022/04/06 02:04:27;;;;;;;9.32;5.10;;;;;;;5.85;87.15;99273.06;4461823;32;34663;-71
2022/04/06 02:07:14;;;;;;;10.27;5.30;;;;;;;5.35;92.02;99267.06;4473399;32;33809;-71
2022/04/06 02:10:03;;;;;;;11.73;5.07;;;;;;;5.85;89.19;99264.09;4462536;32;34633;-71
2022/04/06 02:12:53;;;;;;;9.50;4.80;;;;;;;5.75;89.90;99259.59;4463386;32;34275;-71
2022/04/06 02:15:40;;;;;;;15.25;6.82;;;;;;;4.95;94.13;99255.44;4485957;32;34602;-71
2022/04/06 02:18:26;;;;;;;14.87;7.80;;;;;;;4.85;97.56;99258.19;4463124;32;35010;-70
2022/04/06 02:21:13;;;;;;;13.38;6.32;;;;;;;5.69;92.67;99249.03;4473842;32;34556;-71
2022/04/06 02:23:59;;;;;;;11.50;6.50;;;;;;;6.36;87.59;99244.47;4469307;32;34221;-71
2022/04/06 02:26:45;;;;;;;15.65;6.50;;;;;;;6.46;85.90;99251.69;4462860;32;34661;-72
2022/04/06 02:29:32;;;;;;;10.95;6.15;;;;;;;6.49;83.40;99251.91;4473481;32;35934;-71
2022/04/06 02:32:18;;;;;;;9.85;5.65;;;;;;;6.36;82.91;99260.78;4473553;32;34874;-71
2022/04/06 02:35:11;;;;;;;11.85;5.93;;;;;;;6.01;84.48;99260.16;4474827;32;34138;-71
2022/04/06 02:37:57;;;;;;;12.30;5.95;;;;;;;6.49;82.28;99260.09;4473671;32;35588;-72
2022/04/06 02:40:43;;;;;;;12.45;6.55;;;;;;;6.16;84.22;99269.22;4483417;32;34951;-72
2022/04/06 02:43:30;;;;;;;14.43;6.72;;;;;;;5.38;87.31;99266.47;4473593;32;34525;-71
2022/04/06 02:46:16;;;;;;;13.77;6.72;;;;;;;5.40;90.14;99266.97;4481766;32;33833;-71
2022/04/06 02:49:02;;;;;;;13.48;6.62;;;;;;;5.77;87.82;99259.28;4485626;32;34691;-72
2022/04/06 02:51:49;;;;;;;14.05;7.53;;;;;;;5.52;89.65;99255.75;4471721;32;34955;-71
2022/04/06 02:54:35;;;;;;;9.60;5.78;;;;;;;4.38;99.48;99258.75;4460065;32;35701;-72
2022/04/06 02:57:21;;;;;;;13.60;7.03;;;;;;;5.19;94.28;99258.22;4485374;32;34488;-71
2022/04/06 03:00:08;;;;;;;10.65;6.15;;;;;;;3.98;100.00;99269.50;4469120;32;35443;-71
2022/04/06 03:02:54;;;;;;;13.60;6.32;;;;;;;4.42;100.00;99276.91;4467168;32;34937;-71
2022/04/06 03:05:41;;;;;;;13.35;6.70;;;;;;;5.11;100.00;99272.41;4471618;32;34635;-71
2022/04/06 03:08:29;;;;;;;13.70;6.85;;;;;;;4.06;100.00;99268.13;4473485;32;35164;-71
2022/04/06 03:11:15;;;;;;;11.35;6.10;;;;;;;3.96;100.00;99287.16;4482014;32;34698;-71
2022/04/06 03:14:02;;;;;;;13.43;7.45;;;;;;;4.23;100.00;99279.44;4471470;32;36022;-71
2022/04/06 03:16:48;;;;;;;12.07;6.28;;;;;;;4.00;100.00;99274.66;4470890;32;34659;-71
2022/04/06 03:19:34;;;;;;;11.40;5.78;;;;;;;4.55;100.00;99280.91;4473335;32;35084;-71
2022/04/06 03:22:20;;;;;;;11.98;5.45;;;;;;;4.32;100.00;99284.28;4473406;32;34555;-71
2022/04/06 03:25:07;;;;;;;10.73;5.53;;;;;;;4.78;100.00;99282.16;4473261;32;34916;-71
2022/04/06 03:27:54;;;;;;;9.82;5.35;;;;;;;4.31;100.00;99275.34;4485341;32;34666;-72
2022/04/06 03:30:40;;;;;;;10.27;6.07;;;;;;;4.63;100.00;99282.22;4473132;32;34277;-72
2022/04/06 03:33:27;;;;;;;10.27;5.37;;;;;;;4.13;100.00;99275.97;4472133;32;35453;-72
2022/04/06 03:36:13;;;;;;;10.32;5.20;;;;;;;4.12;100.00;99272.44;4470749;32;35978;-71
2022/04/06 03:38:59;;;;;;;10.30;5.00;;;;;;;4.93;100.00;99271.19;4472867;32;35470;-71
2022/04/06 03:41:45;;;;;;;9.48;5.20;;;;;;;4.95;100.00;99281.75;4479831;32;34440;-71
2022/04/06 03:44:31;;;;;;;9.45;4.45;;;;;;;5.37;97.88;99266.75;4482275;32;35721;-72
2022/04/06 03:47:17;;;;;;;8.25;4.40;;;;;;;5.78;93.69;99269.87;4473395;32;34910;-72
2022/04/06 03:50:04;;;;;;;9.07;4.55;;;;;;;5.84;92.09;99263.28;4484952;32;34799;-71
2022/04/06 03:52:51;;;;;;;11.20;5.28;;;;;;;5.97;91.45;99280.84;4473193;32;34395;-72
2022/04/06 03:55:40;;;;;;;11.63;5.30;;;;;;;5.82;90.84;99278.28;4473373;32;35572;-71
2022/04/06 03:58:26;;;;;;;10.70;4.70;;;;;;;5.74;90.99;99281.62;4479120;32;35113;-72
2022/04/06 04:01:13;;;;;;;10.95;4.87;;;;;;;5.85;91.74;99278.50;4469665;32;35011;-71
2022/04/06 04:03:59;;;;;;;9.60;5.15;;;;;;;6.01;91.18;99278.38;4473522;32;35304;-72
2022/04/06 04:06:45;;;;;;;10.50;5.45;;;;;;;5.97;91.46;99277.31;4485216;32;34607;-72
2022/04/06 04:09:32;;;;;;;12.82;5.68;;;;;;;5.75;93.09;99278.63;4472973;32;35052;-71
2022/04/06 04:12:18;;;;;;;10.13;5.50;;;;;;;6.12;92.79;99279.88;4473738;32;35511;-71
2022/04/06 04:15:06;;;;;;;11.48;5.53;;;;;;;6.04;92.32;99283.22;4484817;32;34352;-71
2022/04/06 04:17:52;;;;;;;11.15;5.53;;;;;;;6.33;91.13;99285.06;4472784;32;34709;-72
2022/04/06 04:20:41;;;;;;;14.00;5.82;;;;;;;6.36;92.21;99279.03;4473126;32;35923;-71
2022/04/06 04:23:28;;;;;;;9.95;5.10;;;;;;;6.59;90.43;99282.81;4473185;32;35466;-71
2022/04/06 04:26:14;;;;;;;13.23;5.22;;;;;;;5.90;93.75;99271.41;4476387;32;34205;-71
2022/04/06 04:29:00;;;;;;;10.52;5.28;;;;;;;5.27;98.80;99281.25;4474720;32;34732;-72
2022/04/06 04:31:47;;;;;;;10.05;4.87;;;;;;;4.76;100.00;99283.53;4474533;32;35038;-71
2022/04/06 04:34:33;;;;;;;9.13;4.50;;;;;;;5.65;99.96;99286.88;4475814;32;34681;-71
2022/04/06 04:37:19;;;;;;;9.52;5.03;;;;;;;5.87;97.65;99289.91;4486883;32;35040;-71
2022/04/06 04:40:06;;;;;;;9.73;4.78;;;;;;;5.22;100.00;99294.84;4470404;32;34527;-71
2022/04/06 04:42:53;;;;;;;9.82;5.03;;;;;;;6.07;96.22;99298.97;4474924;32;34952;-71
2022/04/06 04:45:38;;;;;;;12.57;5.47;;;;;;;6.45;93.29;99304.50;4486494;32;34855;-71
2022/04/06 04:48:25;;;;;;;8.88;4.72;;;;;;;6.19;93.83;99295.84;4486952;32;34474;-71
2022/04/06 04:51:12;;;;;;;9.57;4.97;;;;;;;6.65;92.21;99304.22;4470311;32;34599;-71
2022/04/06 04:53:59;;;;;;;11.10;5.47;;;;;;;6.88;90.96;99296.28;4474323;32;34939;-72
2022/04/06 04:56:45;;;;;;;9.38;4.62;;;;;;;6.89;90.67;99293.28;4486899;32;34602;-71
2022/04/06 04:59:32;;;;;;;9.88;5.30;;;;;;;6.85;91.26;99296.88;4463110;32;35118;-72
2022/04/06 05:02:19;;;;;;;12.15;5.12;;;;;;;6.14;96.41;99298.63;4474502;32;35633;-71
2022/04/06 05:05:06;;;;;;;10.57;5.00;;;;;;;5.81;99.38;99301.13;4478073;32;36030;-71
2022/04/06 05:07:53;;;;;;;10.68;4.90;;;;;;;6.37;97.98;99307.84;4477740;31;34229;-72
2022/04/06 05:10:39;;;;;;;10.15;4.78;;;;;;;6.47;97.54;99315.91;4484313;32;35225;-71
2022/04/06 05:13:25;;;;;;;9.18;4.43;;;;;;;6.80;94.58;99305.13;4452742;32;35415;-72
2022/04/06 05:16:12;;;;;;;8.43;4.40;;;;;;;6.88;93.90;99315.34;4474413;32;34540;-71
2022/04/06 05:19:00;;;;;;;7.93;4.20;;;;;;;6.64;94.67;99310.78;4484238;32;34613;-71
2022/04/06 05:21:47;;;;;;;8.48;4.07;;;;;;;7.35;92.19;99310.84;4474399;32;34215;-72
2022/04/06 05:24:33;;;;;;;8.60;4.40;;;;;;;7.11;93.95;99311.72;4482687;32;34573;-72
2022/04/06 05:27:20;;;;;;;9.02;4.70;;;;;;;7.61;89.90;99316.66;4486572;32;35991;-72
2022/04/06 05:30:06;;;;;;;10.23;4.20;;;;;;;7.97;88.76;99311.38;4479612;32;34705;-72
2022/04/06 05:32:54;;;;;;;12.00;6.30;;;;;;;8.26;86.37;99313.00;4478292;31;34166;-72
2022/04/06 05:35:40;;;;;;;18.55;9.57;;;;;;;8.30;86.55;99314.00;4474349;32;34613;-72
2022/04/06 05:38:27;;;;;;;11.25;6.62;;;;;;;8.39;85.58;99327.78;4481341;32;35948;-72
2022/04/06 05:41:13;;;;;;;11.82;6.07;;;;;;;8.50;85.58;99335.47;4486219;32;35691;-72
2022/04/06 05:43:59;;;;;;;12.32;5.70;;;;;;;8.45;86.18;99338.31;4485955;32;34513;-72
2022/04/06 05:46:46;;;;;;;12.50;5.87;;;;;;;8.70;86.33;99341.62;4485943;32;34614;-72
2022/04/06 05:49:32;;;;;;;10.70;5.90;;;;;;;8.94;84.33;99342.19;4473450;32;34950;-72
2022/04/06 05:52:18;;;;;;;13.75;6.50;;;;;;;8.61;84.17;99338.00;4466304;32;34723;-75
2022/04/06 05:55:06;;;;;;;10.43;5.87;;;;;;;7.18;95.08;99342.16;4468390;32;33761;-75
2022/04/06 05:57:53;;;;;;;14.20;6.15;;;;;;;8.13;89.76;99346.56;4480471;32;35523;-75
2022/04/06 06:00:39;;;;;;;13.20;6.47;;;;;;;6.98;95.68;99356.88;4481050;32;34589;-75
2022/04/06 06:03:26;;;;;;;10.38;5.18;;;;;;;7.97;93.39;99346.84;4480984;32;34313;-75
2022/04/06 06:06:12;;;;;;;14.02;6.53;;;;;;;8.63;88.80;99350.25;4467783;32;34119;-75
2022/04/06 06:08:59;;;;;;;11.60;5.90;;;;;;;8.24;90.80;99342.53;4448718;32;34340;-75
2022/04/06 06:11:45;;;;;;;11.98;5.55;;;;;;;8.24;91.76;99345.25;4448242;32;35117;-75
2022/04/06 06:14:33;;;;;;;11.43;5.78;;;;;;;8.51;91.32;99349.94;4436163;32;34386;-75
2022/04/06 06:17:20;;;;;;;12.68;5.53;;;;;;;8.73;88.83;99354.66;4448772;32;34168;-75
2022/04/06 06:20:07;;;;;;;10.88;5.10;;;;;;;8.41;91.70;99350.16;4446576;32;34814;-75
2022/04/06 06:22:53;;;;;;;12.00;5.57;;;;;;;8.28;92.72;99349.81;4446879;32;35976;-75
2022/04/06 06:25:40;;;;;;;14.55;6.87;;;;;;;8.94;89.57;99349.59;4448693;32;35362;-75
2022/04/06 06:28:27;;;;;;;10.90;5.80;;;;;;;9.45;85.47;99343.75;4449567;32;34179;-75
2022/04/06 06:31:14;;;;;;;18.77;5.70;;;;;;;9.48;85.27;99345.06;4438132;32;34483;-75
2022/04/06 06:34:00;;;;;;;7.65;4.45;;;;;;;9.68;84.61;99347.28;4447072;32;34962;-76
2022/04/06 06:36:47;;;;;;;9.25;5.18;;;;;;;9.71;84.63;99354.06;4447570;32;35721;-75
2022/04/06 06:39:33;;;;;;;10.70;6.00;;;;;;;9.82;83.81;99351.88;4444877;32;35245;-75
2022/04/06 06:42:20;;;;;;;10.07;5.20;;;;;;;10.23;83.09;99346.13;4447082;32;35168;-75
2022/04/06 06:45:06;;;;;;;10.40;5.75;;;;;;;9.54;82.10;99348.47;4448599;32;34956;-75
2022/04/06 06:47:53;;;;;;;12.88;7.07;;;;;;;9.62;83.10;99354.00;4447865;32;34336;-75
2022/04/06 06:50:39;;;;;;;13.90;6.57;;;;;;;10.27;80.49;99338.91;4448682;32;34179;-75
2022/04/06 06:53:25;;;;;;;17.05;7.70;;;;;;;10.22;78.73;99339.03;4448878;32;34640;-75
2022/04/06 06:56:27;;;;;;;14.27;7.00;;;;;;;10.29;77.55;99349.56;4447232;32;33811;-75
2022/04/06 06:59:22;;;;;;;19.92;8.75;;;;;;;10.72;75.43;99335.19;4436215;32;34581;-75
2022/04/06 07:02:09;;;;;;;27.15;12.77;;;;;;;11.06;74.57;99331.69;4447666;32;34168;-75
2022/04/06 07:04:59;;;;;;;33.97;18.35;;;;;;;10.71;73.67;99334.38;4447096;32;35183;-75
2022/04/06 07:07:53;;;;;;;42.25;21.80;;;;;;;11.18;70.17;99334.59;4468717;32;35009;-74
2022/04/06 07:10:45;;;;;;;34.22;18.37;;;;;;;11.77;68.49;99336.00;4462646;32;35431;-74
2022/04/06 07:13:37;;;;;;;34.10;18.75;;;;;;;11.63;67.16;99326.00;4458963;32;34153;-75
2022/04/06 07:16:25;;;;;;;33.13;17.87;;;;;;;11.62;66.61;99324.41;4482077;31;34781;-75
2022/04/06 07:19:21;;;;;;;29.35;14.70;;;;;;;11.60;66.83;99337.63;4459386;32;35684;-75
2022/04/06 07:22:07;;;;;;;27.05;14.60;;;;;;;11.90;64.15;99335.03;4480309;32;34300;-75
2022/04/06 07:24:54;;;;;;;21.85;10.23;;;;;;;12.29;63.55;99333.13;4481109;31;35191;-75
2022/04/06 07:27:40;;;;;;;18.27;9.70;;;;;;;12.77;60.50;99340.16;4456941;31;34433;-75
2022/04/06 07:30:27;;;;;;;15.45;7.90;;;;;;;12.88;61.64;99330.37;4468295;32;35901;-75
2022/04/06 07:33:14;;;;;;;17.37;7.82;;;;;;;13.10;59.15;99334.75;4468155;32;35672;-75
2022/04/06 07:36:01;;;;;;;13.85;7.80;;;;;;;13.28;59.35;99338.19;4479950;31;34460;-76
2022/04/06 07:38:47;;;;;;;13.90;6.60;;;;;;;13.28;57.51;99338.19;4481747;31;34757;-76
2022/04/06 07:41:33;;;;;;;12.95;7.18;;;;;;;13.31;56.52;99344.97;4479876;31;34918;-74
2022/04/06 07:44:20;;;;;;;14.80;7.68;;;;;;;13.43;55.56;99347.78;4478659;32;35539;-75
2022/04/06 07:47:06;;;;;;;14.40;7.25;;;;;;;13.64;55.92;99340.31;4478280;31;34209;-77
2022/04/06 07:49:52;;;;;;;12.95;7.00;;;;;;;13.63;53.93;99338.72;4472104;31;35614;-78
2022/04/06 07:52:38;;;;;;;14.77;6.93;;;;;;;12.77;56.73;99340.16;4462766;32;34657;-76
2022/04/06 07:55:25;;;;;;;13.75;6.55;;;;;;;13.38;55.00;99332.31;4463513;32;34288;-77
2022/04/06 07:58:11;;;;;;;13.50;7.72;;;;;;;13.66;54.20;99339.97;4463814;32;35242;-76
2022/04/06 08:00:58;;;;;;;15.00;7.20;;;;;;;13.11;56.04;99341.06;4475336;32;35614;-75
2022/04/06 08:03:44;;;;;;;19.15;8.60;;;;;;;12.80;57.22;99342.22;4477562;32;35543;-75
2022/04/06 08:06:30;;;;;;;14.60;8.30;;;;;;;13.18;56.30;99344.91;4473860;31;34395;-75
2022/04/06 08:09:17;;;;;;;16.55;7.95;;;;;;;13.41;56.04;99342.62;4478763;32;35142;-75
2022/04/06 08:12:03;;;;;;;16.73;8.15;;;;;;;13.64;55.30;99339.50;4466701;32;34295;-76
2022/04/06 08:14:50;;;;;;;16.55;8.30;;;;;;;13.85;55.52;99344.97;4464679;32;34961;-76
2022/04/06 08:17:38;;;;;;;17.75;8.23;;;;;;;13.94;55.07;99338.25;4476100;31;35327;-76
2022/04/06 08:20:26;;;;;;;15.80;8.00;;;;;;;14.31;53.91;99332.75;4477609;31;32835;-76
2022/04/06 08:23:12;;;;;;;15.90;8.43;;;;;;;14.30;53.82;99342.19;4476091;31;35214;-75
2022/04/06 08:25:59;;;;;;;17.80;8.65;;;;;;;14.92;53.60;99331.19;4476106;32;34024;-76
2022/04/06 08:28:47;;;;;;;17.80;8.30;;;;;;;15.17;51.80;99331.91;4463558;32;34450;-76
2022/04/06 08:31:33;;;;;;;17.75;8.65;;;;;;;14.55;53.85;99333.97;4474518;31;35410;-76
2022/04/06 08:34:19;;;;;;;15.05;8.15;;;;;;;14.87;53.05;99334.19;4465392;32;35244;-76
2022/04/06 08:37:08;;;;;;;14.48;8.35;;;;;;;15.47;50.76;99335.16;4444032;32;34968;-76
2022/04/06 08:39:54;;;;;;;14.27;8.50;;;;;;;15.39;51.93;99334.16;4451514;32;34188;-76
2022/04/06 08:42:53;;;;;;;12.80;7.97;;;;;;;15.44;51.27;99335.88;4474607;31;34942;-76
2022/04/06 08:45:40;;;;;;;13.55;6.72;;;;;;;15.49;50.06;99338.37;4477484;31;34329;-75
2022/04/06 08:48:28;;;;;;;14.75;7.53;;;;;;;14.98;51.96;99335.31;4465895;32;34971;-75
2022/04/06 08:51:16;;;;;;;12.77;6.93;;;;;;;15.41;52.52;99342.09;4465792;32;35057;-75
2022/04/06 08:54:05;;;;;;;12.65;6.82;;;;;;;15.05;52.17;99333.56;4452839;32;33725;-75
2022/04/06 08:56:51;;;;;;;13.25;6.93;;;;;;;15.69;50.54;99331.88;4464362;32;35144;-75
2022/04/06 08:59:38;;;;;;;11.43;6.78;;;;;;;15.22;52.41;99335.22;4450611;31;34984;-75
2022/04/06 09:02:24;;;;;;;10.57;6.43;;;;;;;15.60;50.99;99331.22;4477974;32;34225;-75
2022/04/06 09:05:11;;;;;;;10.70;6.20;;;;;;;15.65;50.98;99330.97;4460981;31;35986;-75
2022/04/06 09:07:58;;;;;;;11.15;6.00;;;;;;;16.26;48.97;99327.06;4465215;32;34725;-76
2022/04/06 09:10:45;;;;;;;11.73;5.78;;;;;;;15.11;51.07;99323.06;4463617;32;34675;-75
2022/04/06 09:13:32;;;;;;;11.40;6.53;;;;;;;15.78;48.59;99323.44;4445950;32;34324;-77
2022/04/06 09:16:28;;;;;;;;;;;;;;;16.31;48.81;99321.25;4458431;32;34193;-77
2022/04/06 09:19:18;;;;;;;8.88;5.30;;;;;;;16.78;48.01;99316.84;4448165;32;34767;-76
2022/04/06 09:22:08;;;;;;;8.30;4.87;;;;;;;16.24;47.78;99314.75;4454304;32;35586;-77
2022/04/06 09:25:02;;;;;;;10.68;5.57;;;;;;;16.89;46.08;99320.66;4453889;32;34427;-76
2022/04/06 09:27:59;;;;;;;8.10;4.60;;;;;;;17.22;45.73;99311.12;4466497;31;34165;-76
2022/04/06 09:30:48;;;;;;;8.23;4.97;;;;;;;17.36;44.84;99310.59;4457803;32;34340;-75
2022/04/06 09:33:41;;;;;;;8.93;5.03;;;;;;;17.45;44.75;99305.66;4467158;31;34575;-77
2022/04/06 09:36:29;;;;;;;10.48;5.47;;;;;;;17.70;44.09;99306.09;4451444;31;34546;-76
2022/04/06 09:39:15;;;;;;;10.88;6.20;;;;;;;16.82;45.10;99296.41;4467738;31;33888;-75
2022/04/06 09:42:02;;;;;;;9.98;5.20;;;;;;;16.34;46.67;99292.09;4470043;32;35446;-77
2022/04/06 09:48:00;;;;;;;10.40;5.25;;;;;;;17.45;43.30;99289.81;4466710;31;34560;-75
2022/04/06 09:50:57;;;;;;;9.05;4.75;;;;;;;17.86;43.38;99289.44;4468663;32;34138;-74
2022/04/06 09:53:44;;;;;;;9.30;5.53;;;;;;;18.07;44.46;99277.91;4457266;32;34581;-75
2022/04/06 09:56:31;;;;;;;10.38;5.32;;;;;;;18.58;40.46;99266.44;4468744;32;33762;-74
2022/04/06 09:59:24;;;;;;;10.27;5.12;;;;;;;19.28;39.90;99263.06;4467647;32;35418;-75
2022/04/06 10:02:11;;;;;;;9.98;5.32;;;;;;;19.64;39.27;99262.66;4469026;31;34167;-76
2022/04/06 10:04:59;;;;;;;10.82;5.80;;;;;;;19.71;38.39;99263.56;4458120;32;34658;-75
2022/04/06 10:07:46;;;;;;;11.00;5.78;;;;;;;20.24;37.63;99264.44;4468212;32;35668;-75
2022/04/06 10:10:33;;;;;;;11.43;6.05;;;;;;;19.98;36.24;99257.88;4467728;32;35120;-75
2022/04/06 10:13:19;;;;;;;12.13;6.32;;;;;;;19.92;37.03;99256.59;4468967;31;33707;-75
2022/04/06 10:16:27;;;;;;;10.70;4.15;;;;;;;18.42;40.04;99249.97;4479683;31;34287;-76
2022/04/06 10:19:14;;;;;;;8.50;4.62;;;;;;;19.51;37.00;99253.78;4466633;31;35017;-76
2022/04/06 10:22:31;;;;;;;9.05;4.93;;;;;;;19.10;37.28;99248.16;4455330;31;36949;-76
2022/04/06 10:25:25;;;;;;;10.30;4.60;;;;;;;18.86;36.97;99247.44;4468110;31;34437;-75
2022/04/06 10:28:11;;;;;;;10.05;4.62;;;;;;;19.03;36.26;99245.28;4467823;32;35175;-75
2022/04/06 10:31:17;;;;;;;10.20;5.03;;;;;;;19.07;35.91;99235.03;4455816;32;34974;-74
2022/04/06 10:34:30;;;;;;;9.57;5.20;;;;;;;19.10;36.47;99228.72;4481091;31;34279;-75
2022/04/06 10:37:16;;;;;;;9.95;5.87;;;;;;;17.76;39.83;99232.63;4477155;32;35025;-76
2022/04/06 10:40:03;;;;;;;8.98;5.00;;;;;;;17.68;39.86;99234.47;4479825;31;34736;-75
2022/04/06 10:42:50;;;;;;;9.65;4.70;;;;;;;18.67;38.04;99228.16;4476868;31;36021;-76
2022/04/06 10:45:37;;;;;;;9.32;4.68;;;;;;;18.01;37.00;99229.50;4456815;31;34686;-75
2022/04/06 10:48:23;;;;;;;7.78;4.93;;;;;;;17.87;39.27;99230.87;4454198;31;33244;-75
2022/04/06 10:51:30;;;;;;;8.88;4.90;;;;;;;16.87;40.08;99224.16;4478264;31;34501;-75
2022/04/06 10:54:16;;;;;;;8.30;4.95;;;;;;;17.47;40.04;99222.97;4467396;31;34918;-75
2022/04/06 10:57:03;;;;;;;9.38;5.68;;;;;;;18.26;38.55;99214.06;4465079;31;35321;-75
2022/04/06 11:00:15;;;;;;;10.30;5.62;;;;;;;17.19;40.11;99224.06;4479704;31;33699;-75
2022/04/06 11:03:15;;;;;;;11.40;5.87;;;;;;;18.68;39.12;99206.75;4466473;32;33533;-75
2022/04/06 11:06:05;;;;;;;12.50;6.95;;;;;;;19.40;38.48;99205.63;4468418;32;34602;-76
2022/04/06 11:12:10;;;;;;;13.30;7.80;;;;;;;18.64;38.95;99195.56;4464352;31;34816;-76
2022/04/06 11:15:00;;;;;;;12.43;7.53;;;;;;;18.50;40.18;99190.66;4463223;32;32617;-76
2022/04/06 11:17:48;;;;;;;15.02;9.60;;;;;;;20.24;37.06;99178.22;4477918;31;35757;-76
2022/04/06 11:20:35;;;;;;;13.07;7.70;;;;;;;18.99;38.87;99188.94;4477861;32;34902;-76
2022/04/06 11:23:35;;;;;;;15.68;8.95;;;;;;;19.35;39.70;99183.75;4467681;31;35385;-76
2022/04/06 11:26:22;;;;;;;14.18;8.63;;;;;;;20.91;35.35;99172.22;4477857;31;37629;-76
2022/04/06 11:29:12;;;;;;;13.15;9.10;;;;;;;20.04;36.99;99174.91;4456095;32;34939;-76
2022/04/06 11:32:04;;;;;;;15.35;10.35;;;;;;;19.23;38.14;99166.19;4443887;31;34208;-76
2022/04/06 11:35:01;;;;;;;15.13;9.48;;;;;;;18.21;39.57;99167.22;4451799;31;33788;-76
2022/04/06 11:37:49;;;;;;;20.48;10.18;;;;;;;17.15;41.58;99162.25;4449088;32;35226;-76
2022/04/06 11:40:47;;;;;;;14.38;9.93;;;;;;;18.91;39.47;99148.37;4454942;32;36045;-75
2022/04/06 11:43:44;;;;;;;15.85;9.70;;;;;;;19.22;40.07;99138.81;4441644;31;34283;-76
2022/04/06 11:46:44;;;;;;;17.12;9.90;;;;;;;20.43;37.24;99141.75;4455709;32;35101;-76
2022/04/06 11:49:30;;;;;;;16.83;9.68;;;;;;;21.23;37.61;99132.50;4478570;32;35604;-75
2022/04/06 11:52:16;;;;;;;13.65;9.15;;;;;;;20.70;35.53;99125.59;4478478;32;34522;-74
2022/04/06 11:55:04;;;;;;;13.68;7.75;;;;;;;21.20;34.15;99128.53;4465909;32;35552;-75
2022/04/06 11:57:50;;;;;;;14.73;9.73;;;;;;;21.11;34.24;99128.12;4479723;31;34178;-76
2022/04/06 12:00:37;;;;;;;12.13;8.02;;;;;;;19.43;36.35;99110.41;4464652;32;34576;-75
2022/04/06 12:03:35;;;;;;;14.38;8.10;;;;;;;20.51;35.08;99104.41;4466956;32;35997;-76
2022/04/06 12:06:30;;;;;;;12.50;8.13;;;;;;;20.20;35.36;99095.50;4478043;31;35593;-75
2022/04/06 12:09:17;;;;;;;13.50;9.13;;;;;;;21.34;34.70;99088.75;4463837;32;35052;-75
2022/04/06 12:12:05;;;;;;;17.48;10.85;;;;;;;20.94;35.50;99092.66;4476382;32;35221;-76
2022/04/06 12:14:52;;;;;;;15.77;9.98;;;;;;;21.15;34.89;99080.78;4462431;32;35025;-76
2022/04/06 12:17:39;;;;;;;11.63;8.02;;;;;;;20.70;34.86;99072.72;4465605;32;34796;-77
2022/04/06 12:20:26;;;;;;;10.00;6.20;;;;;;;20.48;33.17;99063.47;4467704;32;35050;-75
2022/04/06 12:23:17;;;;;;;11.65;7.12;;;;;;;21.12;31.74;99069.25;4464112;31;34511;-76
2022/04/06 12:26:09;;;;;;;8.60;5.25;;;;;;;21.77;31.36;99060.88;4465211;31;35523;-75
2022/04/06 12:29:00;;;;;;;12.37;6.53;;;;;;;21.99;31.17;99050.50;4466689;31;34693;-75
2022/04/06 12:31:47;;;;;;;9.05;6.18;;;;;;;21.12;31.87;99054.53;4463211;31;33949;-76
2022/04/06 12:34:33;;;;;;;14.82;7.55;;;;;;;21.39;31.77;99052.16;4465681;32;35464;-75
2022/04/06 12:37:31;;;;;;;10.68;7.05;;;;;;;22.04;31.35;99049.31;4478398;31;34802;-76
2022/04/06 12:40:23;;;;;;;14.00;8.75;;;;;;;20.73;32.12;99051.66;4463337;32;34635;-76
2022/04/06 12:43:24;;;;;;;12.40;7.10;;;;;;;20.32;33.95;99046.28;4476263;32;35149;-76
2022/04/06 12:46:11;;;;;;;12.50;7.28;;;;;;;20.26;34.67;99031.16;4465401;32;34578;-76
2022/04/06 12:49:19;;;;;;;10.57;7.30;;;;;;;21.49;32.84;99025.50;4478092;32;35032;-76
2022/04/06 12:52:28;;;;;;;10.75;7.70;;;;;;;21.86;31.47;99016.69;4480428;31;34595;-75
2022/04/06 12:55:15;;;;;;;11.18;6.57;;;;;;;21.74;31.24;99012.31;4468497;32;33621;-76
2022/04/06 12:58:19;;;;;;;8.88;5.97;;;;;;;22.12;31.72;99006.25;4480705;32;35428;-76
2022/04/06 13:01:09;;;;;;;12.23;5.85;;;;;;;21.79;31.53;98989.59;4467829;31;34703;-77
2022/04/06 13:03:58;;;;;;;8.98;5.68;;;;;;;21.34;30.45;98999.59;4467724;32;34521;-75
2022/04/06 13:06:45;;;;;;;8.75;5.62;;;;;;;21.69;30.90;98987.63;4468416;31;33635;-76
2022/04/06 13:09:31;;;;;;;8.13;5.72;;;;;;;21.69;30.47;98986.84;4481027;32;34692;-76
2022/04/06 13:12:18;;;;;;;10.88;6.97;;;;;;;21.53;31.52;98976.91;4482349;31;35734;-77
2022/04/06 13:15:05;;;;;;;9.30;5.87;;;;;;;20.15;32.67;98973.53;4470436;31;36960;-75
2022/04/06 13:17:52;;;;;;;10.98;6.93;;;;;;;21.78;31.30;98973.28;4469857;32;34463;-76
2022/04/06 13:20:38;;;;;;;11.75;7.87;;;;;;;21.83;31.18;98975.66;4467600;31;34552;-77
2022/04/06 13:23:24;;;;;;;12.43;8.23;;;;;;;20.82;32.57;98971.31;4481262;31;36256;-76